Terminal Aerodrome Forecast
Issued by NWS

Home | Current Version | Previous Version | Text Only | Print | Product List | Glossary On
Versions: 1 2 3 4 5 6 7 8 9 10 11 12 13 14 15 16 17 18
000
FTAK31 PANC 190809 AAA
TAFACD
TAF AMD
PACD 190809Z 1908/2006 26009KT 4SM BR SCT008 OVC015
      TEMPO 1908/1912 2SM -SHRA BR BKN005
     FM192200 02011KT P6SM OVC015=

USA.gov is the U.S. government's official web portal to all federal, state and local government web resources and services.